createdAt,value
2022-09-10T00:00:10.874Z,17.90
2022-09-10T00:03:56.325Z,18.00
2022-09-10T00:06:50.471Z,18.10
2022-09-10T00:09:57.029Z,18.20
2022-09-10T00:12:40.178Z,18.20
2022-09-10T00:15:22.202Z,18.30
2022-09-10T00:17:58.756Z,18.40
2022-09-10T00:20:32.655Z,18.40
2022-09-10T00:23:16.189Z,18.40
2022-09-10T00:25:58.731Z,18.30
2022-09-10T00:28:32.471Z,18.40
2022-09-10T00:31:18.533Z,18.30
2022-09-10T00:34:25.026Z,18.30
2022-09-10T00:53:58.294Z,17.60
2022-09-10T01:08:44.166Z,17.10
2022-09-10T01:12:35.723Z,17.00
2022-09-10T01:19:26.262Z,16.90
2022-09-10T01:23:20.362Z,16.80
2022-09-10T01:26:25.458Z,16.90
2022-09-10T01:29:11.266Z,16.90
2022-09-10T01:31:49.879Z,16.80
2022-09-10T01:34:44.743Z,16.80
2022-09-10T01:37:37.848Z,16.80
2022-09-10T01:40:28.967Z,16.80
2022-09-10T01:43:25.780Z,16.90
2022-09-10T01:46:51.307Z,17.00
2022-09-10T01:50:39.236Z,17.00
2022-09-10T01:57:26.112Z,17.40
2022-09-10T02:00:49.263Z,17.60
2022-09-10T02:04:00.654Z,17.80
2022-09-10T02:07:07.193Z,17.80
2022-09-10T02:10:16.787Z,18.10
2022-09-10T02:13:00.783Z,18.00
2022-09-10T02:16:57.444Z,18.00
2022-09-10T02:19:57.483Z,18.20
2022-09-10T02:22:51.817Z,18.10
2022-09-10T02:25:26.069Z,18.10
2022-09-10T02:28:12.076Z,18.30
2022-09-10T02:30:45.028Z,18.00
2022-09-10T02:33:23.089Z,18.20
2022-09-10T02:36:26.665Z,18.20
2022-09-10T02:39:10.966Z,18.10
2022-09-10T02:41:46.178Z,18.20
2022-09-10T02:44:31.957Z,17.90
2022-09-10T02:47:12.062Z,17.90
2022-09-10T02:49:54.031Z,17.70
2022-09-10T02:52:27.167Z,17.70
2022-09-10T02:54:58.639Z,17.50
2022-09-10T02:57:31.154Z,17.50
2022-09-10T03:00:00.403Z,17.60
2022-09-10T03:02:29.426Z,17.80
2022-09-10T03:04:57.960Z,17.90
2022-09-10T03:07:31.199Z,17.90
2022-09-10T03:10:00.587Z,17.90
2022-09-10T03:12:29.523Z,18.00
2022-09-10T03:15:01.557Z,18.00
2022-09-10T03:17:30.708Z,18.30
2022-09-10T03:19:59.403Z,18.30
2022-09-10T03:22:29.972Z,18.40
2022-09-10T03:25:01.793Z,18.30
2022-09-10T03:27:30.451Z,18.40
2022-09-10T03:30:00.725Z,18.20
2022-09-10T03:32:32.553Z,18.30
2022-09-10T03:35:01.589Z,18.20
2022-09-10T03:37:36.538Z,18.30
2022-09-10T03:40:05.893Z,18.20
2022-09-10T03:42:34.911Z,18.20
2022-09-10T03:45:07.053Z,18.20
2022-09-10T03:47:39.964Z,18.20
2022-09-10T03:50:23.668Z,18.30
2022-09-10T03:52:57.045Z,18.20
2022-09-10T03:55:26.067Z,18.40
2022-09-10T03:57:57.689Z,18.20
2022-09-10T04:00:30.023Z,18.40
2022-09-10T04:03:02.964Z,18.30
2022-09-10T04:05:39.272Z,18.40
2022-09-10T04:08:12.552Z,18.40
2022-09-10T04:10:48.545Z,18.30
2022-09-10T04:13:20.626Z,18.20
2022-09-10T04:15:52.070Z,18.00
2022-09-10T04:18:20.854Z,18.00
2022-09-10T04:20:49.637Z,18.10
2022-09-10T04:23:19.426Z,17.90
2022-09-10T04:25:49.708Z,18.00
2022-09-10T04:28:18.537Z,17.90
2022-09-10T04:30:49.597Z,18.10
2022-09-10T04:33:20.840Z,18.00
2022-09-10T04:35:49.407Z,17.80
2022-09-10T04:38:19.734Z,18.00
2022-09-10T04:40:51.515Z,17.90
2022-09-10T04:43:20.104Z,18.00
2022-09-10T04:45:50.728Z,17.80
2022-09-10T04:48:20.302Z,17.90
2022-09-10T04:51:15.277Z,17.80
2022-09-10T04:53:51.835Z,17.60
2022-09-10T04:56:23.313Z,17.70
2022-09-10T04:58:52.310Z,17.60
2022-09-10T05:01:21.543Z,17.60
2022-09-10T05:04:01.123Z,17.60
2022-09-10T05:06:32.028Z,17.50
2022-09-10T05:09:03.302Z,17.50
2022-09-10T05:11:39.904Z,17.60
2022-09-10T05:14:08.739Z,17.60
2022-09-10T05:16:46.591Z,17.60
2022-09-10T05:19:19.055Z,17.50
2022-09-10T05:22:03.750Z,17.50
2022-09-10T05:24:37.508Z,17.40
2022-09-10T05:27:15.036Z,17.30
2022-09-10T05:29:43.831Z,17.30
2022-09-10T05:32:13.412Z,17.10
2022-09-10T05:34:41.741Z,17.10
2022-09-10T05:37:11.932Z,17.10
2022-09-10T05:39:41.873Z,17.10
2022-09-10T05:42:10.192Z,17.10
2022-09-10T05:44:39.626Z,16.90
2022-09-10T05:47:09.287Z,16.80
2022-09-10T05:49:53.688Z,16.70
2022-09-10T05:52:25.859Z,16.90
2022-09-10T05:55:00.324Z,17.00
2022-09-10T05:57:46.859Z,16.90
2022-09-10T06:00:21.751Z,17.00
2022-09-10T06:03:16.431Z,17.00
2022-09-10T06:05:59.610Z,17.30
2022-09-10T06:08:36.178Z,17.30
2022-09-10T06:11:13.459Z,17.20
2022-09-10T06:13:45.924Z,17.30
2022-09-10T06:16:14.954Z,17.30
2022-09-10T06:18:45.155Z,17.30
2022-09-10T06:21:19.057Z,17.40
2022-09-10T06:23:54.596Z,17.40
2022-09-10T06:26:26.581Z,17.40
2022-09-10T06:29:06.666Z,17.30
2022-09-10T06:31:38.448Z,17.30
2022-09-10T06:34:15.737Z,17.40
2022-09-10T06:37:03.478Z,17.30
2022-09-10T06:39:35.245Z,17.20
2022-09-10T06:42:05.373Z,17.40
2022-09-10T06:44:52.549Z,17.20
2022-09-10T06:48:37.064Z,17.10
2022-09-10T06:50:53.417Z,17.20
2022-09-10T06:53:24.883Z,17.20
2022-09-10T06:55:58.490Z,17.00
2022-09-10T06:58:39.398Z,17.20
2022-09-10T07:01:12.618Z,17.20
2022-09-10T07:03:50.243Z,17.30
2022-09-10T07:06:30.572Z,17.30
2022-09-10T07:09:08.187Z,17.20
2022-09-10T07:11:42.210Z,17.30
2022-09-10T07:14:15.216Z,17.40
2022-09-10T07:16:45.645Z,17.40
2022-09-10T07:19:21.376Z,17.60
2022-09-10T07:21:52.293Z,17.50
2022-09-10T07:25:01.022Z,17.60
2022-09-10T07:27:41.993Z,17.70
2022-09-10T07:30:26.132Z,17.80
2022-09-10T07:32:57.071Z,17.70
2022-09-10T07:35:32.222Z,18.10
2022-09-10T07:38:22.481Z,18.40
2022-09-10T07:40:52.927Z,18.50
2022-09-10T07:43:25.110Z,18.50
2022-09-10T07:46:04.144Z,18.40
2022-09-10T07:48:37.379Z,18.20
2022-09-10T07:51:08.113Z,18.10
2022-09-10T07:53:38.361Z,18.00
2022-09-10T07:56:08.701Z,18.10
2022-09-10T07:58:41.447Z,18.10
2022-09-10T08:01:16.511Z,18.10
2022-09-10T08:04:05.353Z,18.00
2022-09-10T08:06:36.366Z,18.10
2022-09-10T08:09:19.437Z,18.20
2022-09-10T08:11:57.066Z,18.00
2022-09-10T08:14:31.994Z,18.10
2022-09-10T08:17:06.221Z,17.90
2022-09-10T08:19:44.695Z,18.20
2022-09-10T08:22:14.244Z,18.20
2022-09-10T08:24:53.971Z,18.10
2022-09-10T08:27:28.084Z,18.20
2022-09-10T08:30:11.433Z,18.10
2022-09-10T08:32:49.159Z,18.10
2022-09-10T08:35:26.076Z,18.10
2022-09-10T08:38:37.533Z,18.30
2022-09-10T08:41:29.738Z,18.50
2022-09-10T08:44:29.921Z,18.50
2022-09-10T08:47:40.696Z,18.60
2022-09-10T08:50:24.776Z,18.70
2022-09-10T08:53:00.176Z,18.60
2022-09-10T08:55:35.417Z,18.70
2022-09-10T08:58:37.638Z,18.80
2022-09-10T09:01:30.981Z,19.00
2022-09-10T09:04:29.798Z,18.80
2022-09-10T09:07:12.994Z,18.90
2022-09-10T09:09:58.716Z,19.00
2022-09-10T09:12:50.734Z,18.80
2022-09-10T09:15:31.588Z,19.00
2022-09-10T09:19:03.945Z,19.30
2022-09-10T09:23:27.312Z,19.50
2022-09-10T09:31:12.903Z,19.90
2022-09-10T09:34:48.211Z,19.60
2022-09-10T09:41:53.798Z,19.30
2022-09-10T09:44:33.166Z,19.40
2022-09-10T09:47:12.151Z,19.40
2022-09-10T09:49:43.477Z,19.30
2022-09-10T09:52:33.891Z,19.50
2022-09-10T09:55:56.958Z,19.70
2022-09-10T09:59:11.842Z,19.70
2022-09-10T10:06:29.861Z,20.10
2022-09-10T10:13:27.387Z,19.60
2022-09-10T10:16:34.406Z,19.40
2022-09-10T10:20:17.197Z,19.30
2022-09-10T10:27:06.619Z,19.50
2022-09-10T10:33:39.388Z,19.80
2022-09-10T10:36:18.121Z,19.70
2022-09-10T10:39:24.545Z,19.80
2022-09-10T11:05:35.165Z,19.90
2022-09-10T11:08:27.673Z,20.00
2022-09-10T11:11:34.121Z,20.20
2022-09-10T11:15:21.379Z,20.30
2022-09-10T11:18:28.981Z,20.20
2022-09-10T11:21:29.350Z,20.10
2022-09-10T11:24:30.395Z,20.20
2022-09-10T11:27:08.186Z,20.10
2022-09-10T11:29:46.236Z,20.00
2022-09-10T11:32:28.591Z,20.20
2022-09-10T11:35:08.643Z,20.30
2022-09-10T11:40:44.851Z,20.50
2022-09-10T11:43:36.432Z,20.80
2022-09-10T11:46:11.305Z,20.50
2022-09-10T11:48:50.057Z,20.40
2022-09-10T11:52:15.072Z,20.30
2022-09-10T11:54:48.209Z,20.20
2022-09-10T11:57:55.155Z,20.00
2022-09-10T12:01:57.164Z,20.20
2022-09-10T12:06:41.763Z,20.40
2022-09-10T12:08:51.657Z,20.60
2022-09-10T12:11:56.448Z,20.60
2022-09-10T12:14:28.207Z,20.70
2022-09-10T12:18:46.034Z,20.70
2022-09-10T12:21:55.752Z,20.80
2022-09-10T12:25:05.668Z,20.80
2022-09-10T12:27:49.400Z,20.80
2022-09-10T12:31:11.592Z,20.60
2022-09-10T12:34:10.003Z,20.60
2022-09-10T12:37:26.716Z,20.70
2022-09-10T12:40:32.582Z,20.80
2022-09-10T12:43:51.697Z,20.80
2022-09-10T12:47:22.846Z,20.50
2022-09-10T12:50:10.989Z,20.20
2022-09-10T12:54:06.818Z,20.10
2022-09-10T12:56:45.715Z,19.90
2022-09-10T13:00:23.451Z,20.00
2022-09-10T13:02:59.330Z,20.10
2022-09-10T13:05:38.824Z,20.30
2022-09-10T13:08:25.529Z,20.50
2022-09-10T13:11:37.935Z,20.90
2022-09-10T13:14:27.540Z,21.20
2022-09-10T13:17:13.695Z,21.50
2022-09-10T13:20:15.219Z,21.50
2022-09-10T13:23:04.245Z,21.50
2022-09-10T13:25:41.612Z,21.10
2022-09-10T13:28:57.161Z,20.90
2022-09-10T13:32:18.678Z,21.00
2022-09-10T13:35:36.269Z,21.10
2022-09-10T13:38:43.040Z,20.70
2022-09-10T13:42:15.613Z,20.40
2022-09-10T13:45:59.530Z,20.10
2022-09-10T13:49:19.773Z,19.60
2022-09-10T13:52:00.278Z,19.10
2022-09-10T13:54:49.779Z,19.00
2022-09-10T13:57:26.581Z,19.20
2022-09-10T14:00:07.030Z,19.30
2022-09-10T14:02:42.702Z,19.40
2022-09-10T14:05:43.683Z,19.50
2022-09-10T14:08:26.855Z,19.70
2022-09-10T14:11:03.372Z,19.80
2022-09-10T14:14:12.106Z,19.80
2022-09-10T14:17:03.364Z,19.70
2022-09-10T14:20:36.919Z,19.70
2022-09-10T14:23:20.791Z,19.90
2022-09-10T14:26:13.384Z,20.10
2022-09-10T14:28:57.874Z,20.20
2022-09-10T14:31:37.154Z,20.40
2022-09-10T14:34:33.239Z,20.80
2022-09-10T14:37:04.140Z,21.00
2022-09-10T14:39:33.438Z,21.10
2022-09-10T14:42:28.718Z,21.20
2022-09-10T14:45:06.396Z,21.10
2022-09-10T14:55:54.629Z,20.20
2022-09-10T14:58:32.283Z,20.40
2022-09-10T15:02:03.744Z,20.30
2022-09-10T15:05:13.288Z,20.40
2022-09-10T15:07:43.077Z,20.30
2022-09-10T15:10:20.780Z,20.40
2022-09-10T15:12:53.415Z,20.30
2022-09-10T15:15:52.432Z,20.50
2022-09-10T15:18:22.799Z,20.80
2022-09-10T15:21:01.457Z,20.80
2022-09-10T15:23:37.641Z,20.90
2022-09-10T15:27:47.197Z,20.60
2022-09-10T15:31:02.702Z,20.80
2022-09-10T15:33:49.726Z,20.80
2022-09-10T15:36:22.818Z,20.70
2022-09-10T15:42:21.117Z,20.40
2022-09-10T15:44:52.411Z,20.40
2022-09-10T15:47:43.196Z,20.20
2022-09-10T15:50:23.899Z,20.10
2022-09-10T15:52:56.379Z,20.10
2022-09-10T15:55:25.848Z,20.10
2022-09-10T15:58:19.791Z,20.00
2022-09-10T16:10:15.948Z,19.80
2022-09-10T16:12:49.191Z,19.80
2022-09-10T16:15:34.844Z,19.70
2022-09-10T16:18:12.447Z,19.60
2022-09-10T16:20:42.839Z,19.60
2022-09-10T16:23:16.872Z,19.50
2022-09-10T16:25:57.897Z,19.50
2022-09-10T16:28:51.132Z,19.70
2022-09-10T16:31:22.937Z,19.70
2022-09-10T16:34:00.356Z,19.80
2022-09-10T16:37:26.420Z,20.00
2022-09-10T16:39:58.509Z,19.60
2022-09-10T16:42:54.602Z,19.70
2022-09-10T16:45:22.923Z,19.80
2022-09-10T16:47:52.107Z,19.80
2022-09-10T16:50:20.796Z,19.70
2022-09-10T16:52:49.724Z,19.80
2022-09-10T16:55:19.742Z,19.50
2022-09-10T16:57:50.282Z,19.50
2022-09-10T17:00:22.678Z,19.40
2022-09-10T17:06:51.445Z,19.30
2022-09-10T17:09:22.707Z,19.20
2022-09-10T17:11:53.408Z,19.30
2022-09-10T17:14:29.214Z,19.40
2022-09-10T17:17:05.738Z,19.40
2022-09-10T17:19:34.591Z,19.40
2022-09-10T17:22:03.235Z,19.40
2022-09-10T17:24:32.302Z,19.30
2022-09-10T17:27:02.629Z,19.40
2022-09-10T17:29:33.237Z,19.40
2022-09-10T17:32:01.657Z,19.40
2022-09-10T17:34:30.896Z,19.60
2022-09-10T17:37:02.665Z,19.70
2022-09-10T17:39:31.923Z,19.90
2022-09-10T17:42:06.441Z,19.90
2022-09-10T17:44:35.150Z,20.00
2022-09-10T17:47:06.117Z,20.10
2022-09-10T17:53:27.026Z,19.80
2022-09-10T17:55:56.005Z,19.70
2022-09-10T17:58:28.018Z,19.40
2022-09-10T18:01:01.964Z,19.30
2022-09-10T18:03:36.372Z,19.10
2022-09-10T18:06:18.874Z,19.00
2022-09-10T18:08:48.502Z,18.80
2022-09-10T18:11:22.736Z,18.80
2022-09-10T18:13:59.277Z,19.00
2022-09-10T18:16:33.406Z,18.70
2022-09-10T18:19:29.823Z,18.60
2022-09-10T18:22:27.169Z,18.60
2022-09-10T18:25:49.684Z,18.60
2022-09-10T18:29:15.376Z,18.70
2022-09-10T18:32:07.283Z,18.70
2022-09-10T18:35:05.114Z,18.80
2022-09-10T18:38:03.293Z,18.80
2022-09-10T18:41:04.916Z,18.70
2022-09-10T18:43:36.270Z,18.70
2022-09-10T18:46:06.300Z,18.90
2022-09-10T18:48:35.345Z,18.80
2022-09-10T18:51:11.516Z,18.80
2022-09-10T18:53:41.245Z,18.90
2022-09-10T18:56:12.414Z,18.90
2022-09-10T18:58:41.829Z,18.80
2022-09-10T19:01:14.683Z,18.80
2022-09-10T19:03:49.495Z,18.90
2022-09-10T19:06:33.465Z,18.90
2022-09-10T19:09:04.569Z,18.70
2022-09-10T19:11:38.474Z,18.80
2022-09-10T19:14:33.943Z,18.60
2022-09-10T19:17:11.125Z,18.50
2022-09-10T19:19:40.242Z,18.50
2022-09-10T19:22:10.729Z,18.50
2022-09-10T19:24:54.466Z,18.30
2022-09-10T19:27:46.740Z,18.30
2022-09-10T19:30:35.666Z,18.10
2022-09-10T19:33:06.557Z,18.10
2022-09-10T19:35:36.448Z,17.90
2022-09-10T19:38:21.046Z,17.90
2022-09-10T19:41:03.975Z,17.90
2022-09-10T19:43:36.276Z,17.70
2022-09-10T19:46:21.706Z,17.70
2022-09-10T19:49:13.738Z,17.90
2022-09-10T19:51:44.270Z,18.00
2022-09-10T19:54:19.656Z,17.80
2022-09-10T19:56:49.006Z,17.80
2022-09-10T19:59:21.269Z,17.90
2022-09-10T20:01:51.306Z,17.90
2022-09-10T20:04:21.756Z,17.90
2022-09-10T20:06:53.057Z,17.70
2022-09-10T20:09:21.926Z,17.60
2022-09-10T20:11:50.522Z,17.70
2022-09-10T20:14:20.624Z,17.80
2022-09-10T20:16:51.007Z,17.70
2022-09-10T20:19:22.157Z,17.80
2022-09-10T20:21:51.641Z,18.00
2022-09-10T20:24:32.118Z,17.90
2022-09-10T20:27:06.880Z,18.00
2022-09-10T20:30:06.738Z,17.80
2022-09-10T20:32:48.140Z,17.80
2022-09-10T20:35:22.402Z,17.60
2022-09-10T20:37:53.361Z,17.70
2022-09-10T20:40:22.682Z,17.80
2022-09-10T20:42:56.075Z,17.90
2022-09-10T20:45:26.623Z,18.00
2022-09-10T20:47:55.473Z,18.00
2022-09-10T20:50:51.300Z,17.90
2022-09-10T20:53:26.050Z,17.90
2022-09-10T20:56:06.879Z,17.80
2022-09-10T20:58:39.638Z,17.70
2022-09-10T21:01:10.440Z,17.70
2022-09-10T21:03:41.230Z,17.60
2022-09-10T21:06:13.754Z,17.40
2022-09-10T21:08:46.679Z,17.60
2022-09-10T21:11:21.851Z,17.60
2022-09-10T21:13:51.964Z,17.70
2022-09-10T21:17:52.418Z,17.80
2022-09-10T21:20:54.111Z,17.70
2022-09-10T21:24:26.787Z,17.60
2022-09-10T21:27:15.061Z,17.60
2022-09-10T21:29:55.026Z,17.90
2022-09-10T21:33:09.601Z,18.10
2022-09-10T21:35:44.280Z,18.10
2022-09-10T21:38:39.703Z,18.10
2022-09-10T21:41:27.165Z,18.40
2022-09-10T21:43:57.961Z,18.20
2022-09-10T21:46:30.219Z,18.20
2022-09-10T21:49:09.606Z,18.20
2022-09-10T21:51:58.451Z,18.10
2022-09-10T21:54:35.695Z,18.10
2022-09-10T21:57:24.520Z,18.00
2022-09-10T22:00:00.347Z,18.00
2022-09-10T22:02:45.554Z,18.10
2022-09-10T22:05:14.132Z,18.00
2022-09-10T22:07:42.574Z,17.90
2022-09-10T22:10:11.947Z,17.90
2022-09-10T22:12:40.286Z,17.80
2022-09-10T22:15:11.813Z,17.80
2022-09-10T22:17:40.343Z,17.70
2022-09-10T22:20:12.261Z,17.70
2022-09-10T22:22:52.033Z,17.80
2022-09-10T22:25:28.901Z,17.80
2022-09-10T22:28:31.188Z,17.80
2022-09-10T22:31:26.933Z,17.80
2022-09-10T22:34:39.124Z,17.50
2022-09-10T22:37:07.713Z,17.70
2022-09-10T22:39:40.699Z,17.80
2022-09-10T22:42:35.992Z,17.60
2022-09-10T22:45:13.462Z,17.70
2022-09-10T22:47:43.580Z,17.60
2022-09-10T22:50:12.659Z,17.40
2022-09-10T22:52:43.841Z,17.30
2022-09-10T22:55:14.781Z,17.20
2022-09-10T22:57:51.285Z,17.10
2022-09-10T23:00:20.278Z,17.30
2022-09-10T23:02:54.929Z,17.20
2022-09-10T23:05:25.709Z,17.30
2022-09-10T23:07:56.635Z,17.40
2022-09-10T23:10:25.313Z,17.40
2022-09-10T23:12:53.742Z,17.40
2022-09-10T23:15:22.661Z,17.40
2022-09-10T23:17:58.350Z,17.40
2022-09-10T23:20:31.215Z,17.50
2022-09-10T23:23:02.363Z,17.60
2022-09-10T23:25:30.878Z,17.50
2022-09-10T23:28:16.010Z,17.40
2022-09-10T23:30:45.839Z,17.60
2022-09-10T23:33:16.121Z,17.70
2022-09-10T23:35:51.275Z,17.50
2022-09-10T23:38:19.703Z,17.60
2022-09-10T23:40:48.385Z,17.50
2022-09-10T23:43:17.499Z,17.60
2022-09-10T23:45:46.129Z,17.70
2022-09-10T23:48:16.384Z,17.70
2022-09-10T23:50:45.093Z,17.60
2022-09-10T23:53:14.101Z,17.60
2022-09-10T23:55:42.793Z,17.50
2022-09-10T23:58:30.129Z,17.50
